Jacksonville, FL (32239)

8:15 PM EDT on September 03, 2015 (GMT -0400)
Raymur Villas | | Change Station
CLOSE
Current Station
Personal Weather Station
Location: Jacksonville, FL
Elevation: 75 ft
Nearby Weather Stations

Elev 75 ft 30.36 °N, 81.56 °W | Updated 23 seconds ago

Mostly Cloudy
Mostly Cloudy
83.9 °F
Feels Like 94 °F
N
0.0
Wind Variable Wind from NNE
Gusts 0.0 mph

Today
High -- | Low -- °F
--% Chance of Precip.
Yesterday
High -- | Low -- °F
Precip. -- in
7:04 AM 7:46 PM
Waning Gibbous, 65% visible
Pressure 29.90 in
Visibility 10.0 miles
Clouds Clear
Heat Index 94 °F
Dew Point 77 °F
Humidity 81%
Rainfall 0.00 in
Snow Depth Not available.
UV 0 out of 12
Pollen 5.20 out of 12
Air Quality Not available.
Flu Activity Not available.
METAR KCRG 032353Z 00000KT 10SM CLR 28/24 A2990 RMK AO2 SLP123 T02830244 10333 20283 56002
Pressure 29.90 in
Visibility 10.0 miles
Clouds Clear
Heat Index 94 °F
Dew Point 77 °F
Humidity 81%
Rainfall 0.00 in
Snow Depth Not available.
UV 0 out of 12
Pollen 5.20 out of 12
Air Quality Not available.
Flu Activity Not available.
METAR KCRG 032353Z 00000KT 10SM CLR 28/24 A2990 RMK AO2 SLP123 T02830244 10333 20283 56002

10-Day Weather Forecast

×

Almanac

Astronomy

Sep. 03, 2015 Rise Set
Actual Time
Civil Twilight
Nautical Twilight
Astronomical Twilight
Moon
Length of Visible Light
Length of Day
Tomorrow will be .
, % of the Moon is Illuminated

Today's Extremes

State Highs State Lows

Community

WunderPhotos

Upload Photos

1,852,068 photos uploaded!

WunderBlogs® & News

Nearby

Air Quality

  Air Quality AQ Index Pollutant
Not available.

Snow Depth

Station Depth Elevation

Earthquake Activity

City Distance Mag. Time & Date
Minimum magnitude displayed is 2.5.

Coastal Water Temperatures

Place Temperature

Stations

Nearby Weather Stations

Station Location Temp. Windchill Dew Point Humidity Wind Precip. Elev Updated Type